Idanha, Oregon
Current Conditions -  °F | °C
As of 6:15 AM on Saturday 22 Nov 2014 (Local Time) from KSLE Reporting Station
Light Rain Light Rain  
Wind Chill: 48°   Ceiling: 4700
Heat Index: 48°   Visibility: 8mi
Dew Point: 47°   Wind: 0mph
Humidity: 96%   Direction: NA
Pressure: 29.79"   Gusts: NA
Location:  44.7°N, 122.08°W
Report Text: KSLE 221415Z AUTO 00000KT 8SM -RA FEW006 BKN047 OVC060 09/08 A2979 RMK AO2 P0004 T00890083
Loading
Personal Weather Stations






























Interactive Weather Map New forecast layout! Learn more

10-Day Weather Forecast

Advertisements
Track Severe Weather on mobile